RYR2TL EPMO-EGSS
Flight info
| Callsign | RYR2TL |
|---|---|
| Flight time | N/A |
| Altitude | 36000 |
| Route | OLILA DCT MEBIV DCT RILAB L621 SOMOR DCT TADAK L29 ALUKA DCT GARLU DCT NOGRO M40 RINIS |
| Aircraft | B738/M-SDE2E3FGHIRWXY/LB1 |
Departure
| Time | N/A |
|---|---|
| Airport | Warsaw Modlin Airport (EPMO) |
Arrival
| Time | 2026-05-04 13:16 |
|---|---|
| Airport | London Stansted Airport (EGSS) |
| Time | Latitude | Longitude | Altitude | Speed | Heading |
|---|---|---|---|---|---|
| 2026-05-04 12:41 | 52.04873 | 3.75734 | 35974 ft | 397 kts | 255° |
| 2026-05-04 12:41 | 52.03657 | 3.67033 | 35976 ft | 397 kts | 255° |
| 2026-05-04 12:42 | 52.02426 | 3.58279 | 35935 ft | 397 kts | 255° |
| 2026-05-04 12:42 | 52.01812 | 3.53929 | 35672 ft | 394 kts | 255° |
| 2026-05-04 12:42 | 52.01213 | 3.49696 | 35379 ft | 388 kts | 255° |
| 2026-05-04 12:42 | 52.00607 | 3.45425 | 35009 ft | 385 kts | 255° |
| 2026-05-04 12:43 | 52.00011 | 3.41231 | 34657 ft | 380 kts | 255° |
| 2026-05-04 12:43 | 51.99424 | 3.37121 | 34138 ft | 379 kts | 255° |
| 2026-05-04 12:43 | 51.98833 | 3.32989 | 33726 ft | 374 kts | 253° |
| 2026-05-04 12:43 | 51.98244 | 3.28893 | 33255 ft | 371 kts | 253° |
| 2026-05-04 12:44 | 51.97660 | 3.24840 | 32777 ft | 369 kts | 253° |
| 2026-05-04 12:44 | 51.97084 | 3.20851 | 32290 ft | 367 kts | 253° |
| 2026-05-04 12:44 | 51.96570 | 3.16793 | 31821 ft | 366 kts | 256° |
| 2026-05-04 12:44 | 51.96213 | 3.12779 | 31396 ft | 363 kts | 259° |
| 2026-05-04 12:45 | 51.95935 | 3.08715 | 30958 ft | 361 kts | 260° |
| 2026-05-04 12:45 | 51.95692 | 3.04726 | 30420 ft | 360 kts | 260° |
| 2026-05-04 12:45 | 51.95452 | 3.00730 | 29909 ft | 357 kts | 260° |
| 2026-05-04 12:45 | 51.95206 | 2.96719 | 29468 ft | 352 kts | 260° |
| 2026-05-04 12:46 | 51.94962 | 2.92839 | 28920 ft | 351 kts | 260° |
| 2026-05-04 12:46 | 51.94709 | 2.88897 | 28443 ft | 348 kts | 261° |
| 2026-05-04 12:46 | 51.94458 | 2.85046 | 27951 ft | 345 kts | 261° |
| 2026-05-04 12:46 | 51.94204 | 2.81204 | 27368 ft | 345 kts | 261° |
| 2026-05-04 12:47 | 51.93948 | 2.77346 | 26931 ft | 341 kts | 261° |
| 2026-05-04 12:47 | 51.93698 | 2.73582 | 26517 ft | 337 kts | 261° |
| 2026-05-04 12:47 | 51.93445 | 2.69816 | 26100 ft | 333 kts | 261° |
| 2026-05-04 12:47 | 51.93198 | 2.66181 | 25704 ft | 328 kts | 261° |
| 2026-05-04 12:48 | 51.92950 | 2.62521 | 25302 ft | 324 kts | 261° |
| 2026-05-04 12:48 | 51.92704 | 2.58905 | 24907 ft | 320 kts | 261° |
| 2026-05-04 12:48 | 51.92461 | 2.55360 | 24515 ft | 316 kts | 261° |
| 2026-05-04 12:48 | 51.92216 | 2.51821 | 24123 ft | 320 kts | 261° |
| 2026-05-04 12:49 | 51.91969 | 2.48264 | 23718 ft | 323 kts | 261° |
| 2026-05-04 12:49 | 51.91719 | 2.44682 | 23332 ft | 320 kts | 262° |
| 2026-05-04 12:49 | 51.91472 | 2.41138 | 22944 ft | 316 kts | 262° |
| 2026-05-04 12:49 | 51.91227 | 2.37646 | 22556 ft | 313 kts | 262° |
| 2026-05-04 12:50 | 51.90980 | 2.34151 | 22174 ft | 312 kts | 261° |
| 2026-05-04 12:50 | 51.90759 | 2.30701 | 21985 ft | 314 kts | 263° |
| 2026-05-04 12:50 | 51.90635 | 2.27049 | 21889 ft | 322 kts | 265° |
| 2026-05-04 12:50 | 51.90567 | 2.23450 | 21639 ft | 321 kts | 266° |
| 2026-05-04 12:51 | 51.90511 | 2.19876 | 21372 ft | 317 kts | 266° |
| 2026-05-04 12:51 | 51.90449 | 2.16362 | 21040 ft | 313 kts | 266° |
| 2026-05-04 12:51 | 51.90380 | 2.12844 | 20648 ft | 310 kts | 266° |
| 2026-05-04 12:51 | 51.90304 | 2.09391 | 20268 ft | 307 kts | 266° |
| 2026-05-04 12:52 | 51.90224 | 2.05962 | 19886 ft | 312 kts | 266° |
| 2026-05-04 12:52 | 51.90137 | 2.02400 | 19490 ft | 317 kts | 266° |
| 2026-05-04 12:52 | 51.90049 | 1.98854 | 19093 ft | 315 kts | 266° |
| 2026-05-04 12:52 | 51.89962 | 1.95357 | 18702 ft | 312 kts | 266° |
| 2026-05-04 12:53 | 51.89899 | 1.91858 | 18314 ft | 310 kts | 270° |
| 2026-05-04 12:53 | 51.90109 | 1.88439 | 18005 ft | 307 kts | 282° |
| 2026-05-04 12:53 | 51.90843 | 1.85195 | 17990 ft | 312 kts | 294° |
| 2026-05-04 12:53 | 51.91839 | 1.82038 | 17983 ft | 317 kts | 297° |
| 2026-05-04 12:54 | 51.92905 | 1.78892 | 17989 ft | 315 kts | 297° |
| 2026-05-04 12:54 | 51.93953 | 1.75827 | 17984 ft | 315 kts | 297° |
| 2026-05-04 12:54 | 51.95001 | 1.72722 | 17988 ft | 315 kts | 297° |
| 2026-05-04 12:54 | 51.96040 | 1.69603 | 17849 ft | 316 kts | 297° |
| 2026-05-04 12:55 | 51.97072 | 1.66474 | 17602 ft | 315 kts | 297° |
| 2026-05-04 12:55 | 51.98098 | 1.63353 | 17349 ft | 312 kts | 297° |
| 2026-05-04 12:55 | 51.99111 | 1.60261 | 17099 ft | 309 kts | 297° |
| 2026-05-04 12:55 | 52.00116 | 1.57190 | 16844 ft | 310 kts | 297° |
| 2026-05-04 12:56 | 52.01124 | 1.54106 | 16603 ft | 309 kts | 297° |
| 2026-05-04 12:56 | 52.01997 | 1.50955 | 16340 ft | 304 kts | 283° |
| 2026-05-04 12:56 | 52.02205 | 1.47556 | 16074 ft | 303 kts | 269° |
| 2026-05-04 12:56 | 52.02087 | 1.44157 | 15826 ft | 302 kts | 266° |
| 2026-05-04 12:57 | 52.01997 | 1.40793 | 15578 ft | 300 kts | 269° |
| 2026-05-04 12:57 | 52.02003 | 1.37437 | 15333 ft | 298 kts | 270° |
| 2026-05-04 12:57 | 52.02030 | 1.34059 | 15076 ft | 298 kts | 270° |
| 2026-05-04 12:57 | 52.02049 | 1.30741 | 14822 ft | 296 kts | 270° |
| 2026-05-04 12:58 | 52.02054 | 1.27407 | 14558 ft | 295 kts | 269° |
| 2026-05-04 12:58 | 52.02047 | 1.24063 | 14316 ft | 295 kts | 269° |
| 2026-05-04 12:58 | 52.02035 | 1.20746 | 14053 ft | 294 kts | 269° |
| 2026-05-04 12:58 | 52.02022 | 1.17451 | 13805 ft | 290 kts | 269° |
| 2026-05-04 12:59 | 52.02009 | 1.14170 | 13472 ft | 287 kts | 269° |
| 2026-05-04 12:59 | 52.01998 | 1.10967 | 13119 ft | 285 kts | 269° |
| 2026-05-04 12:59 | 52.01986 | 1.07782 | 12762 ft | 283 kts | 269° |
| 2026-05-04 12:59 | 52.01974 | 1.04609 | 12404 ft | 281 kts | 269° |
| 2026-05-04 13:00 | 52.01959 | 1.01447 | 12052 ft | 279 kts | 269° |
| 2026-05-04 13:00 | 52.01942 | 0.98333 | 11706 ft | 277 kts | 269° |
| 2026-05-04 13:00 | 52.01924 | 0.95207 | 11356 ft | 275 kts | 269° |
| 2026-05-04 13:00 | 52.01904 | 0.92104 | 11009 ft | 274 kts | 269° |
| 2026-05-04 13:01 | 52.01883 | 0.89043 | 10658 ft | 272 kts | 269° |
| 2026-05-04 13:01 | 52.01862 | 0.86001 | 10318 ft | 272 kts | 269° |
| 2026-05-04 13:01 | 52.01840 | 0.82921 | 9985 ft | 275 kts | 269° |
| 2026-05-04 13:01 | 52.01817 | 0.79832 | 9793 ft | 267 kts | 269° |
| 2026-05-04 13:02 | 52.01794 | 0.76832 | 9434 ft | 266 kts | 269° |
| 2026-05-04 13:02 | 52.01768 | 0.73853 | 9099 ft | 264 kts | 269° |
| 2026-05-04 13:02 | 52.01737 | 0.70916 | 8776 ft | 262 kts | 269° |
| 2026-05-04 13:02 | 52.01733 | 0.67954 | 8451 ft | 260 kts | 271° |
| 2026-05-04 13:03 | 52.01774 | 0.65117 | 8082 ft | 261 kts | 271° |
| 2026-05-04 13:03 | 52.01825 | 0.62226 | 7883 ft | 253 kts | 271° |
| 2026-05-04 13:03 | 52.01876 | 0.59400 | 7754 ft | 244 kts | 271° |
| 2026-05-04 13:03 | 52.01925 | 0.56689 | 7464 ft | 243 kts | 271° |
| 2026-05-04 13:04 | 52.01973 | 0.53969 | 7192 ft | 240 kts | 271° |
| 2026-05-04 13:04 | 52.02020 | 0.51284 | 6900 ft | 239 kts | 271° |
| 2026-05-04 13:04 | 52.02065 | 0.48567 | 6420 ft | 246 kts | 271° |
| 2026-05-04 13:04 | 52.02104 | 0.45729 | 5988 ft | 249 kts | 270° |
| 2026-05-04 13:05 | 52.01764 | 0.43073 | 5936 ft | 238 kts | 247° |
| 2026-05-04 13:05 | 52.01011 | 0.40691 | 5923 ft | 237 kts | 242° |
| 2026-05-04 13:05 | 52.00217 | 0.38359 | 5930 ft | 238 kts | 242° |
| 2026-05-04 13:05 | 51.99411 | 0.35975 | 5700 ft | 241 kts | 242° |
| 2026-05-04 13:06 | 51.98609 | 0.33623 | 5399 ft | 240 kts | 241° |
| 2026-05-04 13:06 | 51.97807 | 0.31281 | 5142 ft | 237 kts | 241° |
| 2026-05-04 13:06 | 51.97006 | 0.28955 | 4888 ft | 236 kts | 241° |
| 2026-05-04 13:06 | 51.96202 | 0.26624 | 4596 ft | 237 kts | 241° |
| 2026-05-04 13:07 | 51.95399 | 0.24305 | 4293 ft | 236 kts | 241° |
| 2026-05-04 13:07 | 51.94582 | 0.21949 | 3989 ft | 236 kts | 241° |
| 2026-05-04 13:07 | 51.93773 | 0.19669 | 3692 ft | 236 kts | 238° |
| 2026-05-04 13:07 | 51.92804 | 0.17503 | 3389 ft | 236 kts | 232° |
| 2026-05-04 13:08 | 51.91777 | 0.15437 | 3090 ft | 236 kts | 231° |
| 2026-05-04 13:08 | 51.90751 | 0.13405 | 2965 ft | 229 kts | 231° |
| 2026-05-04 13:08 | 51.89742 | 0.11414 | 2964 ft | 229 kts | 231° |
| 2026-05-04 13:08 | 51.88768 | 0.09494 | 2957 ft | 216 kts | 231° |
| 2026-05-04 13:09 | 51.87825 | 0.07640 | 2962 ft | 213 kts | 231° |
| 2026-05-04 13:09 | 51.86903 | 0.05827 | 2940 ft | 205 kts | 231° |
| 2026-05-04 13:09 | 51.85999 | 0.04052 | 2832 ft | 202 kts | 231° |
| 2026-05-04 13:09 | 51.85124 | 0.02342 | 2692 ft | 195 kts | 231° |
| 2026-05-04 13:10 | 51.84276 | 0.00684 | 2553 ft | 190 kts | 231° |
| 2026-05-04 13:10 | 51.83372 | -0.00898 | 2458 ft | 189 kts | 214° |
| 2026-05-04 13:10 | 51.82132 | -0.01384 | 2456 ft | 189 kts | 169° |
| 2026-05-04 13:10 | 51.80885 | -0.00827 | 2457 ft | 181 kts | 160° |
| 2026-05-04 13:11 | 51.79693 | -0.00229 | 2462 ft | 180 kts | 161° |
| 2026-05-04 13:11 | 51.78489 | 0.00361 | 2454 ft | 181 kts | 161° |
| 2026-05-04 13:11 | 51.77290 | 0.00995 | 2451 ft | 180 kts | 152° |
| 2026-05-04 13:11 | 51.76471 | 0.02417 | 2450 ft | 175 kts | 103° |
| 2026-05-04 13:12 | 51.76562 | 0.04300 | 2458 ft | 167 kts | 67° |
| 2026-05-04 13:12 | 51.77147 | 0.05823 | 2448 ft | 158 kts | 50° |
| 2026-05-04 13:12 | 51.77864 | 0.07190 | 2451 ft | 160 kts | 47° |
| 2026-05-04 13:12 | 51.78617 | 0.08494 | 2451 ft | 159 kts | 45° |
| 2026-05-04 13:13 | 51.79409 | 0.09767 | 2453 ft | 159 kts | 44° |
| 2026-05-04 13:13 | 51.80191 | 0.10984 | 2399 ft | 157 kts | 43° |
| 2026-05-04 13:13 | 51.80991 | 0.12207 | 2166 ft | 160 kts | 43° |
| 2026-05-04 13:13 | 51.81797 | 0.13433 | 1945 ft | 154 kts | 42° |
| 2026-05-04 13:14 | 51.82549 | 0.14565 | 1745 ft | 143 kts | 41° |
| 2026-05-04 13:14 | 51.83271 | 0.15639 | 1555 ft | 141 kts | 40° |
| 2026-05-04 13:14 | 51.83995 | 0.16723 | 1355 ft | 141 kts | 42° |
| 2026-05-04 13:14 | 51.84718 | 0.17801 | 1171 ft | 143 kts | 41° |
| 2026-05-04 13:15 | 51.85445 | 0.18897 | 975 ft | 141 kts | 42° |
| 2026-05-04 13:15 | 51.86168 | 0.19973 | 786 ft | 141 kts | 41° |
| 2026-05-04 13:15 | 51.86870 | 0.21049 | 604 ft | 141 kts | 42° |
| 2026-05-04 13:15 | 51.87588 | 0.22118 | 414 ft | 142 kts | 41° |
| 2026-05-04 13:16 | 51.88275 | 0.23140 | 341 ft | 116 kts | 43° |
| 2026-05-04 13:16 | 51.88717 | 0.23805 | 341 ft | 58 kts | 43° |
| 2026-05-04 13:16 | 51.88934 | 0.24130 | 341 ft | 38 kts | 42° |
| 2026-05-04 13:16 | 51.89061 | 0.24385 | 341 ft | 27 kts | 60° |
| 2026-05-04 13:17 | 51.89123 | 0.24624 | 341 ft | 18 kts | 68° |
| 2026-05-04 13:17 | 51.89151 | 0.24735 | 341 ft | 5 kts | 68° |
| 2026-05-04 13:17 | 51.89167 | 0.24801 | 341 ft | 6 kts | 73° |
| 2026-05-04 13:17 | 51.89159 | 0.24877 | 341 ft | 7 kts | 121° |
| 2026-05-04 13:18 | 51.89164 | 0.24954 | 341 ft | 7 kts | 57° |
| 2026-05-04 13:18 | 51.89205 | 0.25021 | 340 ft | 8 kts | 42° |
| 2026-05-04 13:18 | 51.89216 | 0.25045 | 341 ft | 0 kts | 55° |
| 2026-05-04 13:19 | 51.89220 | 0.25055 | 341 ft | 3 kts | 59° |
| 2026-05-04 13:19 | 51.89246 | 0.25126 | 340 ft | 12 kts | 57° |
| 2026-05-04 13:20 | 51.89319 | 0.25268 | 341 ft | 18 kts | 45° |
| 2026-05-04 13:20 | 51.89413 | 0.25421 | 341 ft | 18 kts | 66° |
| 2026-05-04 13:20 | 51.89370 | 0.25545 | 341 ft | 10 kts | 149° |
| 2026-05-04 13:20 | 51.89317 | 0.25595 | 341 ft | 8 kts | 170° |
| 2026-05-04 13:21 | 51.89269 | 0.25577 | 341 ft | 1 kts | 197° |
| 2026-05-04 13:21 | 51.89266 | 0.25575 | 341 ft | 0 kts | 197° |